createdAt,value
2023-10-04T00:00:18.479Z,2.00
2023-10-04T00:01:18.457Z,1.90
2023-10-04T00:02:20.200Z,1.70
2023-10-04T00:03:18.520Z,1.70
2023-10-04T00:04:19.537Z,1.80
2023-10-04T00:05:18.363Z,1.70
2023-10-04T00:06:18.399Z,2.00
2023-10-04T00:07:19.005Z,1.80
2023-10-04T00:08:19.502Z,1.80
2023-10-04T00:09:18.749Z,1.70
2023-10-04T00:10:21.069Z,1.90
2023-10-04T00:11:18.461Z,1.90
2023-10-04T00:12:18.351Z,2.00
2023-10-04T00:13:18.369Z,1.50
2023-10-04T00:14:18.293Z,1.90
2023-10-04T00:15:18.265Z,1.90
2023-10-04T00:16:18.349Z,2.00
2023-10-04T00:17:18.261Z,1.90
2023-10-04T00:18:18.356Z,2.30
2023-10-04T00:19:18.213Z,2.20
2023-10-04T00:20:18.195Z,1.70
2023-10-04T00:21:18.210Z,1.90
2023-10-04T00:22:18.205Z,2.00
2023-10-04T00:23:18.153Z,2.00
2023-10-04T00:24:18.226Z,1.80
2023-10-04T00:25:18.164Z,1.90
2023-10-04T00:26:18.150Z,1.50
2023-10-04T00:27:18.133Z,2.20
2023-10-04T00:28:18.130Z,1.70
2023-10-04T00:29:18.118Z,1.70
2023-10-04T00:30:18.155Z,2.10
2023-10-04T00:31:18.184Z,2.00
2023-10-04T00:32:18.101Z,2.20
2023-10-04T00:33:18.112Z,1.90
2023-10-04T00:34:18.077Z,1.70
2023-10-04T00:35:18.049Z,1.80
2023-10-04T00:36:18.120Z,1.80
2023-10-04T00:37:18.042Z,1.90
2023-10-04T00:38:18.005Z,1.70
2023-10-04T00:39:18.056Z,2.00
2023-10-04T00:40:17.988Z,2.00
2023-10-04T00:41:17.965Z,1.90
2023-10-04T00:42:18.013Z,1.80
2023-10-04T00:43:17.957Z,1.90
2023-10-04T00:44:17.961Z,2.00
2023-10-04T00:45:17.994Z,1.60
2023-10-04T00:46:17.957Z,2.00
2023-10-04T00:47:17.906Z,1.90
2023-10-04T00:48:18.023Z,1.70
2023-10-04T00:49:17.899Z,1.80
2023-10-04T00:50:17.898Z,1.80
2023-10-04T00:51:17.879Z,1.70
2023-10-04T00:52:17.839Z,2.00
2023-10-04T00:53:17.850Z,1.70
2023-10-04T00:54:17.825Z,2.10
2023-10-04T00:55:17.850Z,1.80
2023-10-04T00:56:17.846Z,2.20
2023-10-04T00:57:17.836Z,1.90
2023-10-04T00:58:17.813Z,2.00
2023-10-04T00:59:17.778Z,1.80
2023-10-04T01:00:17.826Z,1.80
2023-10-04T01:01:17.810Z,1.80
2023-10-04T01:02:17.818Z,1.90
2023-10-04T01:03:17.891Z,2.00
2023-10-04T01:04:17.849Z,1.80
2023-10-04T01:05:17.738Z,1.70
2023-10-04T01:06:17.753Z,1.80
2023-10-04T01:07:17.709Z,1.90
2023-10-04T01:08:17.737Z,1.90
2023-10-04T01:09:17.712Z,1.70
2023-10-04T01:10:17.749Z,2.20
2023-10-04T01:11:17.672Z,1.70
2023-10-04T01:12:17.666Z,1.90
2023-10-04T01:13:17.641Z,2.00
2023-10-04T01:14:17.641Z,2.30
2023-10-04T01:15:17.677Z,1.80
2023-10-04T01:16:17.587Z,2.00
2023-10-04T01:17:17.590Z,1.60
2023-10-04T01:18:17.694Z,1.90
2023-10-04T01:19:17.623Z,1.90
2023-10-04T01:20:17.602Z,2.20
2023-10-04T01:21:17.600Z,2.00
2023-10-04T01:22:17.569Z,1.80
2023-10-04T01:23:17.530Z,1.80
2023-10-04T01:24:17.529Z,1.60
2023-10-04T01:25:17.514Z,2.10
2023-10-04T01:26:17.478Z,1.90
2023-10-04T01:27:17.517Z,2.10
2023-10-04T01:28:17.493Z,2.10
2023-10-04T01:29:17.491Z,1.80
2023-10-04T01:30:17.499Z,1.70
2023-10-04T01:31:17.489Z,1.90
2023-10-04T01:32:17.417Z,1.80
2023-10-04T01:33:17.874Z,1.70
2023-10-04T01:34:17.434Z,2.20
2023-10-04T01:35:17.390Z,1.70
2023-10-04T01:36:17.503Z,2.00
2023-10-04T01:37:17.400Z,2.00
2023-10-04T01:38:17.372Z,1.80
2023-10-04T01:39:17.411Z,1.70
2023-10-04T01:40:17.358Z,2.10
2023-10-04T01:41:17.331Z,1.70
2023-10-04T01:42:17.494Z,1.90
2023-10-04T01:43:18.005Z,1.80
2023-10-04T01:44:17.437Z,1.70
2023-10-04T01:45:17.470Z,1.90
2023-10-04T01:46:17.392Z,2.00
2023-10-04T01:47:17.370Z,1.80
2023-10-04T01:48:17.710Z,1.60
2023-10-04T01:49:17.370Z,1.70
2023-10-04T01:50:17.326Z,2.00
2023-10-04T01:51:17.255Z,2.00
2023-10-04T01:52:17.215Z,1.90
2023-10-04T01:53:17.384Z,1.90
2023-10-04T01:54:17.212Z,1.90
2023-10-04T01:55:17.178Z,2.00
2023-10-04T01:56:17.197Z,2.00
2023-10-04T01:57:17.196Z,1.60
2023-10-04T01:58:17.164Z,1.80
2023-10-04T01:59:17.149Z,1.90
2023-10-04T02:00:17.182Z,1.70
2023-10-04T02:01:17.167Z,1.80
2023-10-04T02:02:17.138Z,1.90
2023-10-04T02:03:17.141Z,1.60
2023-10-04T02:04:17.134Z,1.80
2023-10-04T02:05:17.071Z,2.00
2023-10-04T02:06:17.099Z,1.90
2023-10-04T02:07:17.066Z,1.80
2023-10-04T02:08:17.044Z,1.60
2023-10-04T02:09:17.057Z,1.60
2023-10-04T02:10:17.043Z,1.80
2023-10-04T02:11:17.002Z,1.90
2023-10-04T02:12:17.165Z,1.70
2023-10-04T02:13:17.008Z,2.20
2023-10-04T02:14:16.975Z,1.60
2023-10-04T02:15:17.041Z,1.70
2023-10-04T02:16:16.975Z,2.10
2023-10-04T02:17:17.026Z,2.00
2023-10-04T02:18:17.219Z,2.00
2023-10-04T02:19:16.933Z,1.90
2023-10-04T02:20:16.926Z,1.90
2023-10-04T02:21:16.937Z,1.80
2023-10-04T02:22:16.911Z,1.50
2023-10-04T02:23:16.923Z,1.90
2023-10-04T02:24:16.877Z,1.70
2023-10-04T02:25:16.873Z,1.70
2023-10-04T02:26:16.875Z,1.70
2023-10-04T02:27:16.861Z,1.90
2023-10-04T02:28:16.823Z,2.20
2023-10-04T02:29:16.860Z,1.50
2023-10-04T02:30:16.833Z,1.80
2023-10-04T02:31:16.836Z,1.90
2023-10-04T02:32:16.787Z,1.80
2023-10-04T02:33:16.901Z,1.60
2023-10-04T02:34:16.760Z,1.80
2023-10-04T02:35:16.777Z,2.00
2023-10-04T02:36:16.865Z,1.80
2023-10-04T02:37:16.765Z,2.00
2023-10-04T02:38:16.741Z,1.70
2023-10-04T02:39:16.741Z,2.10
2023-10-04T02:40:16.707Z,1.90
2023-10-04T02:41:16.723Z,1.80
2023-10-04T02:42:16.706Z,2.00
2023-10-04T02:43:16.665Z,1.50
2023-10-04T02:44:16.669Z,1.90
2023-10-04T02:45:16.666Z,1.80
2023-10-04T02:46:16.654Z,1.70
2023-10-04T02:47:16.645Z,2.00
2023-10-04T02:48:16.628Z,1.70
2023-10-04T02:49:16.632Z,2.00
2023-10-04T02:50:16.580Z,1.80
2023-10-04T02:51:16.626Z,2.10
2023-10-04T02:52:16.570Z,2.00
2023-10-04T02:53:16.563Z,1.90
2023-10-04T02:54:16.578Z,1.80
2023-10-04T02:55:16.569Z,1.80
2023-10-04T02:56:16.545Z,1.80
2023-10-04T02:57:16.531Z,1.90
2023-10-04T02:58:16.525Z,1.70
2023-10-04T02:59:16.506Z,1.80
2023-10-04T03:00:48.051Z,1.80
2023-10-04T03:01:16.529Z,2.00
2023-10-04T03:02:16.459Z,2.20
2023-10-04T03:03:16.505Z,1.80
2023-10-04T03:04:16.452Z,1.70
2023-10-04T03:05:16.463Z,1.80
2023-10-04T03:06:16.420Z,1.70
2023-10-04T03:07:16.409Z,2.10
2023-10-04T03:08:16.425Z,1.80
2023-10-04T03:09:16.498Z,2.00
2023-10-04T03:10:16.384Z,1.80
2023-10-04T03:11:16.402Z,1.90
2023-10-04T03:12:16.406Z,2.00
2023-10-04T03:13:16.379Z,1.80
2023-10-04T03:14:16.338Z,1.90
2023-10-04T03:15:16.337Z,1.80
2023-10-04T03:16:16.370Z,1.90
2023-10-04T03:17:16.330Z,1.70
2023-10-04T03:18:16.352Z,1.60
2023-10-04T03:19:16.319Z,2.10
2023-10-04T03:20:16.263Z,1.80
2023-10-04T03:21:16.324Z,2.00
2023-10-04T03:22:16.238Z,2.00
2023-10-04T03:23:16.239Z,1.80
2023-10-04T03:24:16.244Z,2.30
2023-10-04T03:25:16.254Z,1.90
2023-10-04T03:26:16.451Z,1.80
2023-10-04T03:27:16.241Z,1.80
2023-10-04T03:28:16.170Z,1.70
2023-10-04T03:29:16.163Z,2.00
2023-10-04T03:30:16.201Z,1.60
2023-10-04T03:31:16.795Z,1.80
2023-10-04T03:32:16.150Z,1.90
2023-10-04T03:33:16.245Z,1.60
2023-10-04T03:34:16.129Z,1.70
2023-10-04T03:35:16.100Z,2.00
2023-10-04T03:36:16.320Z,1.90
2023-10-04T03:37:16.078Z,1.90
2023-10-04T03:38:16.105Z,2.00
2023-10-04T03:39:16.101Z,2.30
2023-10-04T03:40:16.176Z,2.20
2023-10-04T03:41:16.060Z,2.00
2023-10-04T03:42:16.066Z,2.20
2023-10-04T03:43:16.020Z,2.20
2023-10-04T03:44:16.003Z,1.60
2023-10-04T03:45:16.009Z,1.80
2023-10-04T03:46:16.083Z,1.70
2023-10-04T03:47:15.974Z,1.70
2023-10-04T03:48:16.004Z,2.00
2023-10-04T03:49:15.949Z,1.90
2023-10-04T03:50:15.940Z,1.80
2023-10-04T03:51:16.000Z,2.40
2023-10-04T03:52:15.972Z,2.30
2023-10-04T03:53:15.941Z,1.80
2023-10-04T03:54:15.958Z,1.50
2023-10-04T03:55:15.922Z,1.90
2023-10-04T03:56:15.895Z,1.90
2023-10-04T03:57:15.955Z,2.00
2023-10-04T03:58:15.875Z,2.10
2023-10-04T03:59:15.895Z,1.80
2023-10-04T04:00:15.891Z,1.80
2023-10-04T04:01:16.081Z,1.70
2023-10-04T04:02:15.818Z,2.10
2023-10-04T04:03:15.981Z,1.70
2023-10-04T04:04:16.580Z,2.10
2023-10-04T04:05:15.947Z,2.00
2023-10-04T04:06:15.859Z,1.80
2023-10-04T04:07:15.786Z,1.70
2023-10-04T04:08:15.766Z,1.90
2023-10-04T04:09:15.816Z,2.00
2023-10-04T04:10:15.729Z,2.00
2023-10-04T04:11:15.820Z,1.90
2023-10-04T04:12:15.752Z,1.90
2023-10-04T04:13:15.713Z,2.00
2023-10-04T04:14:15.700Z,2.10
2023-10-04T04:15:15.808Z,2.40
2023-10-04T04:16:15.654Z,1.90
2023-10-04T04:17:15.671Z,1.90
2023-10-04T04:18:15.785Z,1.90
2023-10-04T04:19:15.659Z,1.80
2023-10-04T04:20:15.640Z,1.80
2023-10-04T04:21:15.668Z,1.90
2023-10-04T04:22:15.602Z,2.10
2023-10-04T04:23:15.592Z,1.90
2023-10-04T04:24:15.616Z,2.20
2023-10-04T04:25:15.574Z,2.10
2023-10-04T04:26:15.579Z,1.80
2023-10-04T04:27:15.616Z,1.90
2023-10-04T04:28:15.582Z,2.50
2023-10-04T04:29:15.529Z,2.10
2023-10-04T04:30:15.544Z,2.30
2023-10-04T04:31:15.712Z,2.00
2023-10-04T04:32:15.530Z,1.80
2023-10-04T04:33:15.608Z,2.20
2023-10-04T04:34:15.490Z,1.90
2023-10-04T04:35:15.449Z,2.30
2023-10-04T04:36:15.507Z,2.00
2023-10-04T04:37:15.474Z,2.10
2023-10-04T04:38:15.435Z,1.90
2023-10-04T04:39:15.453Z,1.90
2023-10-04T04:40:15.450Z,1.80
2023-10-04T04:41:15.414Z,1.90
2023-10-04T04:42:15.473Z,2.40
2023-10-04T04:43:15.375Z,2.10
2023-10-04T04:44:15.380Z,2.10
2023-10-04T04:45:15.366Z,2.50
2023-10-04T04:46:15.496Z,2.00
2023-10-04T04:47:15.382Z,2.30
2023-10-04T04:48:15.324Z,1.80
2023-10-04T04:49:15.310Z,2.20
2023-10-04T04:50:15.306Z,1.90
2023-10-04T04:51:15.348Z,1.70
2023-10-04T04:52:15.283Z,2.10
2023-10-04T04:53:15.300Z,2.00
2023-10-04T04:54:15.323Z,2.00
2023-10-04T04:55:15.261Z,2.30
2023-10-04T04:56:15.234Z,2.00
2023-10-04T04:57:15.295Z,1.80
2023-10-04T04:58:15.307Z,2.30
2023-10-04T04:59:15.210Z,2.30
2023-10-04T05:00:15.323Z,2.00
2023-10-04T05:01:15.212Z,1.90
2023-10-04T05:02:15.194Z,2.00
2023-10-04T05:03:15.223Z,1.80
2023-10-04T05:04:15.298Z,2.20
2023-10-04T05:05:15.157Z,1.70
2023-10-04T05:06:15.213Z,1.90
2023-10-04T05:07:15.166Z,2.00
2023-10-04T05:08:15.110Z,1.70
2023-10-04T05:09:15.180Z,1.90
2023-10-04T05:10:15.127Z,2.10
2023-10-04T05:11:15.101Z,2.40
2023-10-04T05:12:15.141Z,2.00
2023-10-04T05:13:15.079Z,2.10
2023-10-04T05:14:15.076Z,2.20
2023-10-04T05:15:15.104Z,2.00
2023-10-04T05:16:15.080Z,1.80
2023-10-04T05:17:15.022Z,2.30
2023-10-04T05:18:15.051Z,1.90
2023-10-04T05:19:15.031Z,1.80
2023-10-04T05:20:15.024Z,1.90
2023-10-04T05:21:14.975Z,1.80
2023-10-04T05:22:14.963Z,2.00
2023-10-04T05:23:14.913Z,2.00
2023-10-04T05:24:14.993Z,1.80
2023-10-04T05:25:14.878Z,1.70
2023-10-04T05:26:14.885Z,2.10
2023-10-04T05:27:14.930Z,1.70
2023-10-04T05:28:14.879Z,2.40
2023-10-04T05:29:14.854Z,2.00
2023-10-04T05:30:14.883Z,2.00
2023-10-04T05:31:14.844Z,2.00
2023-10-04T05:32:14.871Z,2.30
2023-10-04T05:33:14.979Z,1.70
2023-10-04T05:34:14.852Z,2.00
2023-10-04T05:35:14.783Z,2.10
2023-10-04T05:36:14.802Z,2.00
2023-10-04T05:37:14.746Z,2.20
2023-10-04T05:38:14.746Z,2.00
2023-10-04T05:39:14.798Z,2.10
2023-10-04T05:40:17.383Z,2.00
2023-10-04T05:41:14.701Z,2.40
2023-10-04T05:42:14.727Z,2.40
2023-10-04T05:43:14.686Z,1.90
2023-10-04T05:44:14.707Z,1.90
2023-10-04T05:45:14.703Z,2.40
2023-10-04T05:46:14.697Z,1.90
2023-10-04T05:47:14.649Z,2.70
2023-10-04T05:48:14.666Z,2.10
2023-10-04T05:49:14.690Z,2.00
2023-10-04T05:50:14.619Z,2.40
2023-10-04T05:51:14.651Z,1.80
2023-10-04T05:52:14.623Z,2.30
2023-10-04T05:53:14.627Z,2.10
2023-10-04T05:54:14.602Z,1.90
2023-10-04T05:55:14.591Z,2.70
2023-10-04T05:56:14.588Z,1.90
2023-10-04T05:57:14.557Z,2.20
2023-10-04T05:58:14.517Z,2.20
2023-10-04T05:59:14.534Z,2.00
2023-10-04T06:00:14.580Z,2.10
2023-10-04T06:01:14.759Z,2.50
2023-10-04T06:02:14.491Z,1.80
2023-10-04T06:03:14.536Z,2.60
2023-10-04T06:04:14.532Z,2.30
2023-10-04T06:05:14.445Z,2.30
2023-10-04T06:06:14.474Z,3.00
2023-10-04T06:07:14.430Z,1.90
2023-10-04T06:08:14.406Z,2.10
2023-10-04T06:09:14.471Z,1.90
2023-10-04T06:10:14.408Z,1.90
2023-10-04T06:11:14.380Z,2.20
2023-10-04T06:12:14.378Z,2.10
2023-10-04T06:13:14.394Z,2.40
2023-10-04T06:14:14.351Z,2.00
2023-10-04T06:15:14.719Z,2.00
2023-10-04T06:16:14.387Z,1.90
2023-10-04T06:17:14.358Z,2.10
2023-10-04T06:18:14.386Z,1.90
2023-10-04T06:19:27.474Z,2.00
2023-10-04T06:20:14.309Z,2.00
2023-10-04T06:21:14.349Z,2.80
2023-10-04T06:22:14.316Z,2.10
2023-10-04T06:23:14.309Z,2.20
2023-10-04T06:24:14.299Z,2.40
2023-10-04T06:25:14.514Z,2.20
2023-10-04T06:26:14.255Z,1.90
2023-10-04T06:27:14.337Z,2.30
2023-10-04T06:28:14.241Z,2.10
2023-10-04T06:29:14.217Z,2.70
2023-10-04T06:30:15.904Z,2.50
2023-10-04T06:31:14.266Z,3.40
2023-10-04T06:32:14.178Z,4.00
2023-10-04T06:33:14.247Z,4.90
2023-10-04T06:34:14.177Z,3.60
2023-10-04T06:35:14.134Z,3.80
2023-10-04T06:36:14.137Z,2.60
2023-10-04T06:37:14.129Z,2.30
2023-10-04T06:38:14.174Z,2.50
2023-10-04T06:39:14.145Z,2.20
2023-10-04T06:40:14.085Z,2.10
2023-10-04T06:41:14.058Z,2.20
2023-10-04T06:42:14.091Z,2.20
2023-10-04T06:43:14.054Z,2.10
2023-10-04T06:44:14.044Z,2.10
2023-10-04T06:45:14.064Z,2.10
2023-10-04T06:46:16.021Z,2.00
2023-10-04T06:47:14.017Z,2.30
2023-10-04T06:48:14.056Z,2.40
2023-10-04T06:49:13.991Z,2.40
2023-10-04T06:50:13.951Z,2.50
2023-10-04T06:51:14.005Z,2.50
2023-10-04T06:52:13.957Z,2.50
2023-10-04T06:53:14.294Z,2.30
2023-10-04T06:54:14.244Z,2.10
2023-10-04T06:55:13.914Z,2.20
2023-10-04T06:56:13.919Z,2.30
2023-10-04T06:57:14.012Z,2.00
2023-10-04T06:58:13.918Z,2.20
2023-10-04T06:59:13.891Z,2.20
2023-10-04T07:00:13.927Z,2.10
2023-10-04T07:01:13.888Z,2.20
2023-10-04T07:02:13.837Z,2.50
2023-10-04T07:03:13.992Z,4.80
2023-10-04T07:04:13.891Z,5.50
2023-10-04T07:05:13.797Z,4.60
2023-10-04T07:06:13.875Z,3.40
2023-10-04T07:07:13.789Z,3.70
2023-10-04T07:08:13.778Z,3.30
2023-10-04T07:09:13.768Z,2.70
2023-10-04T07:10:13.787Z,3.20
2023-10-04T07:11:13.736Z,2.50
2023-10-04T07:12:13.769Z,2.50
2023-10-04T07:13:14.621Z,2.30
2023-10-04T07:14:13.749Z,2.20
2023-10-04T07:15:13.728Z,2.40
2023-10-04T07:16:13.841Z,2.50
2023-10-04T07:17:14.626Z,2.20
2023-10-04T07:18:14.733Z,2.40
2023-10-04T07:19:13.699Z,2.00
2023-10-04T07:20:13.633Z,2.40
2023-10-04T07:21:13.668Z,2.70
2023-10-04T07:22:13.645Z,2.10
2023-10-04T07:23:14.067Z,2.00
2023-10-04T07:24:13.631Z,2.30
2023-10-04T07:25:13.616Z,2.30
2023-10-04T07:26:13.597Z,2.20
2023-10-04T07:27:13.590Z,2.30
2023-10-04T07:28:13.561Z,2.40
2023-10-04T07:29:13.640Z,2.50
2023-10-04T07:30:13.599Z,2.40
2023-10-04T07:31:13.550Z,2.50
2023-10-04T07:32:13.522Z,3.90
2023-10-04T07:33:14.341Z,4.80
2023-10-04T07:34:14.503Z,4.40
2023-10-04T07:35:13.467Z,3.50
2023-10-04T07:36:13.569Z,3.70
2023-10-04T07:37:13.494Z,3.10
2023-10-04T07:38:13.443Z,2.90
2023-10-04T07:39:13.491Z,2.50
2023-10-04T07:40:13.416Z,2.30
2023-10-04T07:41:13.470Z,2.60
2023-10-04T07:42:13.448Z,2.60
2023-10-04T07:43:13.385Z,2.20
2023-10-04T07:44:13.399Z,2.40
2023-10-04T07:45:13.384Z,2.60
2023-10-04T07:46:15.131Z,2.60
2023-10-04T07:47:13.351Z,2.20
2023-10-04T07:48:13.436Z,2.60
2023-10-04T07:49:13.320Z,2.20
2023-10-04T07:50:13.338Z,2.10
2023-10-04T07:51:13.321Z,2.30
2023-10-04T07:52:13.303Z,2.20
2023-10-04T07:53:15.046Z,2.40
2023-10-04T07:54:13.294Z,2.40
2023-10-04T07:55:13.294Z,2.30
2023-10-04T07:56:13.256Z,2.30
2023-10-04T07:57:13.280Z,2.80
2023-10-04T07:58:13.480Z,2.70
2023-10-04T07:59:13.335Z,2.20
2023-10-04T08:00:13.263Z,2.50
2023-10-04T08:01:14.279Z,2.20
2023-10-04T08:02:13.216Z,2.20
2023-10-04T08:03:13.285Z,2.50
2023-10-04T08:04:13.274Z,2.30
2023-10-04T08:05:13.251Z,2.20
2023-10-04T08:06:13.243Z,2.60
2023-10-04T08:07:13.254Z,2.50
2023-10-04T08:08:13.180Z,2.20
2023-10-04T08:09:13.188Z,2.20
2023-10-04T08:10:13.165Z,2.60
2023-10-04T08:11:13.236Z,2.50
2023-10-04T08:12:15.476Z,3.20
2023-10-04T08:13:13.149Z,2.50
2023-10-04T08:14:13.545Z,2.40
2023-10-04T08:15:13.453Z,4.20
2023-10-04T08:16:16.223Z,3.10
2023-10-04T08:17:13.124Z,2.40
2023-10-04T08:18:13.094Z,2.60
2023-10-04T08:19:13.964Z,2.50
2023-10-04T08:20:13.083Z,3.00
2023-10-04T08:21:13.139Z,2.50
2023-10-04T08:22:13.009Z,2.40
2023-10-04T08:23:13.010Z,2.30
2023-10-04T08:24:13.022Z,2.40
2023-10-04T08:25:13.473Z,2.40
2023-10-04T08:26:15.106Z,2.20
2023-10-04T08:27:13.088Z,2.40
2023-10-04T08:28:12.987Z,2.00
2023-10-04T08:29:13.046Z,2.30
2023-10-04T08:30:13.165Z,2.30
2023-10-04T08:31:13.000Z,2.50
2023-10-04T08:32:13.026Z,2.60
2023-10-04T08:33:13.342Z,2.70
2023-10-04T08:34:13.031Z,2.30
2023-10-04T08:35:12.937Z,2.40
2023-10-04T08:36:13.065Z,2.30
2023-10-04T08:37:12.863Z,3.50
2023-10-04T08:38:12.975Z,3.80
2023-10-04T08:39:12.890Z,3.70
2023-10-04T08:40:12.869Z,3.50
2023-10-04T08:41:12.889Z,3.60
2023-10-04T08:42:12.817Z,3.30
2023-10-04T08:43:12.831Z,3.30
2023-10-04T08:44:13.170Z,3.00
2023-10-04T08:45:12.873Z,2.60
2023-10-04T08:46:12.924Z,2.90
2023-10-04T08:47:12.738Z,2.60
2023-10-04T08:48:12.851Z,2.70
2023-10-04T08:49:12.813Z,2.80
2023-10-04T08:50:12.732Z,2.70
2023-10-04T08:51:14.547Z,2.60
2023-10-04T08:52:12.697Z,2.50
2023-10-04T08:53:12.774Z,2.50
2023-10-04T08:54:12.718Z,2.90
2023-10-04T08:55:12.722Z,2.50
2023-10-04T08:56:12.793Z,2.50
2023-10-04T08:57:12.647Z,2.70
2023-10-04T08:58:12.717Z,2.70
2023-10-04T08:59:12.649Z,2.60
2023-10-04T09:00:23.367Z,2.80
2023-10-04T09:01:12.676Z,2.30
2023-10-04T09:02:12.649Z,2.70
2023-10-04T09:03:12.979Z,2.40
2023-10-04T09:04:12.768Z,2.30
2023-10-04T09:05:12.516Z,2.40
2023-10-04T09:06:12.712Z,2.80
2023-10-04T09:07:12.560Z,2.50
2023-10-04T09:08:12.488Z,2.80
2023-10-04T09:09:12.495Z,3.30
2023-10-04T09:10:12.519Z,2.80
2023-10-04T09:11:12.495Z,2.60
2023-10-04T09:12:12.527Z,2.60
2023-10-04T09:13:12.484Z,2.50
2023-10-04T09:14:12.434Z,2.50
2023-10-04T09:15:12.541Z,2.70
2023-10-04T09:16:12.705Z,2.60
2023-10-04T09:17:12.484Z,2.50
2023-10-04T09:18:12.549Z,2.40
2023-10-04T09:19:12.442Z,2.90
2023-10-04T09:20:12.427Z,2.60
2023-10-04T09:21:12.476Z,2.50
2023-10-04T09:22:12.367Z,2.50
2023-10-04T09:23:12.361Z,2.60
2023-10-04T09:24:12.414Z,2.70
2023-10-04T09:25:12.350Z,2.90
2023-10-04T09:26:12.348Z,2.90
2023-10-04T09:27:12.314Z,3.40
2023-10-04T09:28:12.262Z,3.80
2023-10-04T09:29:12.295Z,3.70
2023-10-04T09:30:12.313Z,3.30
2023-10-04T09:31:12.309Z,3.20
2023-10-04T09:32:12.240Z,3.30
2023-10-04T09:33:12.348Z,2.80
2023-10-04T09:34:12.979Z,2.80
2023-10-04T09:35:12.220Z,2.80
2023-10-04T09:36:13.232Z,2.70
2023-10-04T09:37:12.216Z,2.60
2023-10-04T09:38:12.173Z,2.60
2023-10-04T09:39:12.295Z,3.10
2023-10-04T09:40:12.129Z,3.90
2023-10-04T09:41:12.500Z,3.40
2023-10-04T09:42:12.141Z,3.50
2023-10-04T09:43:13.473Z,3.50
2023-10-04T09:44:12.153Z,2.90
2023-10-04T09:45:12.207Z,3.30
2023-10-04T09:46:12.809Z,2.70
2023-10-04T09:47:12.097Z,2.60
2023-10-04T09:48:12.179Z,2.60
2023-10-04T09:49:12.096Z,2.60
2023-10-04T09:50:12.059Z,2.50
2023-10-04T09:51:12.060Z,2.90
2023-10-04T09:52:12.015Z,2.30
2023-10-04T09:53:12.562Z,2.40
2023-10-04T09:54:12.027Z,2.80
2023-10-04T09:55:12.009Z,2.50
2023-10-04T09:56:11.953Z,3.00
2023-10-04T09:57:11.980Z,2.50
2023-10-04T09:58:11.970Z,2.50
2023-10-04T09:59:11.944Z,2.20
2023-10-04T10:00:22.768Z,2.50
2023-10-04T10:01:11.972Z,2.40
2023-10-04T10:02:11.896Z,2.40
2023-10-04T10:03:11.921Z,2.30
2023-10-04T10:04:12.836Z,2.20
2023-10-04T10:05:12.218Z,2.20
2023-10-04T10:06:11.902Z,2.10
2023-10-04T10:07:12.052Z,2.90
2023-10-04T10:08:11.975Z,2.40
2023-10-04T10:09:11.893Z,2.70
2023-10-04T10:10:15.949Z,2.60
2023-10-04T10:11:11.817Z,2.40
2023-10-04T10:12:11.827Z,2.40
2023-10-04T10:13:11.785Z,2.40
2023-10-04T10:14:11.869Z,2.30
2023-10-04T10:15:11.811Z,2.40
2023-10-04T10:16:11.824Z,2.60
2023-10-04T10:17:11.718Z,2.20
2023-10-04T10:18:11.726Z,2.80
2023-10-04T10:19:11.729Z,2.50
2023-10-04T10:20:11.704Z,2.60
2023-10-04T10:21:11.769Z,2.60
2023-10-04T10:22:11.740Z,2.10
2023-10-04T10:23:11.684Z,2.70
2023-10-04T10:24:11.725Z,2.90
2023-10-04T10:25:11.696Z,3.40
2023-10-04T10:26:11.637Z,2.40
2023-10-04T10:27:11.622Z,2.40
2023-10-04T10:28:11.644Z,2.50
2023-10-04T10:29:11.602Z,2.70
2023-10-04T10:30:11.619Z,3.10
2023-10-04T10:31:11.753Z,2.50
2023-10-04T10:32:11.599Z,2.50
2023-10-04T10:33:11.662Z,3.10
2023-10-04T10:34:11.753Z,3.60
2023-10-04T10:35:11.526Z,3.20
2023-10-04T10:36:11.569Z,3.30
2023-10-04T10:37:11.551Z,3.20
2023-10-04T10:38:11.522Z,2.90
2023-10-04T10:39:11.495Z,3.40
2023-10-04T10:40:11.502Z,3.10
2023-10-04T10:41:11.534Z,2.90
2023-10-04T10:42:11.463Z,3.20
2023-10-04T10:43:11.496Z,3.40
2023-10-04T10:44:11.588Z,3.60
2023-10-04T10:45:11.467Z,3.60
2023-10-04T10:46:11.625Z,4.10
2023-10-04T10:47:11.423Z,3.50
2023-10-04T10:48:11.447Z,3.50
2023-10-04T10:49:11.502Z,3.30
2023-10-04T10:50:11.386Z,2.90
2023-10-04T10:51:11.405Z,3.40
2023-10-04T10:52:11.381Z,3.10
2023-10-04T10:53:11.423Z,2.70
2023-10-04T10:54:11.361Z,2.50
2023-10-04T10:55:11.343Z,2.40
2023-10-04T10:56:11.327Z,2.70
2023-10-04T10:57:11.318Z,2.60
2023-10-04T10:58:11.314Z,3.30
2023-10-04T10:59:11.319Z,2.80
2023-10-04T11:00:11.267Z,2.50
2023-10-04T11:01:11.405Z,2.60
2023-10-04T11:02:11.292Z,3.00
2023-10-04T11:03:11.545Z,2.80
2023-10-04T11:04:11.300Z,2.80
2023-10-04T11:05:11.315Z,2.60
2023-10-04T11:06:12.474Z,2.70
2023-10-04T11:07:11.212Z,3.10
2023-10-04T11:08:11.397Z,2.80
2023-10-04T11:09:11.231Z,2.80
2023-10-04T11:10:11.258Z,2.80
2023-10-04T11:11:11.224Z,2.90
2023-10-04T11:12:11.211Z,2.90
2023-10-04T11:13:11.186Z,2.80
2023-10-04T11:14:11.267Z,2.70
2023-10-04T11:15:12.314Z,2.50
2023-10-04T11:16:11.505Z,2.50
2023-10-04T11:17:11.562Z,2.60
2023-10-04T11:18:11.519Z,2.80
2023-10-04T11:19:11.171Z,3.10
2023-10-04T11:20:11.277Z,3.10
2023-10-04T11:21:11.093Z,3.20
2023-10-04T11:22:11.752Z,3.10
2023-10-04T11:23:11.150Z,2.90
2023-10-04T11:24:11.098Z,2.80
2023-10-04T11:25:11.032Z,2.70
2023-10-04T11:26:11.054Z,2.90
2023-10-04T11:27:11.053Z,4.10
2023-10-04T11:28:11.041Z,2.90
2023-10-04T11:29:10.946Z,3.40
2023-10-04T11:30:10.996Z,3.50
2023-10-04T11:31:11.136Z,4.30
2023-10-04T11:32:11.021Z,4.30
2023-10-04T11:33:11.766Z,4.60
2023-10-04T11:34:10.909Z,4.20
2023-10-04T11:35:11.012Z,4.20
2023-10-04T11:36:11.214Z,4.20
2023-10-04T11:37:10.909Z,3.60
2023-10-04T11:38:10.999Z,3.40
2023-10-04T11:39:10.976Z,3.70
2023-10-04T11:40:10.952Z,3.90
2023-10-04T11:41:10.867Z,3.70
2023-10-04T11:42:10.931Z,3.30
2023-10-04T11:43:11.032Z,3.50
2023-10-04T11:44:10.840Z,3.10
2023-10-04T11:45:10.890Z,3.70
2023-10-04T11:46:11.102Z,3.20
2023-10-04T11:47:12.158Z,3.20
2023-10-04T11:48:10.935Z,3.30
2023-10-04T11:49:11.943Z,3.30
2023-10-04T11:50:10.790Z,3.50
2023-10-04T11:51:10.755Z,3.60
2023-10-04T11:52:11.756Z,3.50
2023-10-04T11:53:10.723Z,3.20
2023-10-04T11:54:10.791Z,3.80
2023-10-04T11:55:10.764Z,3.40
2023-10-04T11:56:10.778Z,3.50
2023-10-04T11:57:10.736Z,3.80
2023-10-04T11:58:10.677Z,3.50
2023-10-04T11:59:10.653Z,3.80
2023-10-04T12:00:10.620Z,3.40
2023-10-04T12:01:10.646Z,3.50
2023-10-04T12:02:10.626Z,3.60
2023-10-04T12:03:10.656Z,3.20
2023-10-04T12:04:13.080Z,3.80
2023-10-04T12:05:10.649Z,3.70
2023-10-04T12:06:10.571Z,3.00
2023-10-04T12:07:10.581Z,3.30
2023-10-04T12:08:10.590Z,3.20
2023-10-04T12:09:10.577Z,3.10
2023-10-04T12:10:10.508Z,3.20
2023-10-04T12:11:11.224Z,4.00
2023-10-04T12:12:10.505Z,2.90
2023-10-04T12:13:10.476Z,3.40
2023-10-04T12:14:10.512Z,3.20
2023-10-04T12:15:10.479Z,3.60
2023-10-04T12:16:12.223Z,3.20
2023-10-04T12:17:10.439Z,3.30
2023-10-04T12:18:10.445Z,3.40
2023-10-04T12:19:10.408Z,3.20
2023-10-04T12:20:10.400Z,3.30
2023-10-04T12:21:10.402Z,3.50
2023-10-04T12:22:10.558Z,3.30
2023-10-04T12:23:10.377Z,3.80
2023-10-04T12:24:10.400Z,3.40
2023-10-04T12:25:10.390Z,3.00
2023-10-04T12:26:10.326Z,3.20
2023-10-04T12:27:10.569Z,3.20
2023-10-04T12:28:10.382Z,3.70
2023-10-04T12:29:10.320Z,3.30
2023-10-04T12:30:10.294Z,3.70
2023-10-04T12:31:10.378Z,3.10
2023-10-04T12:32:10.290Z,3.50
2023-10-04T12:33:10.332Z,3.40
2023-10-04T12:34:10.360Z,3.60
2023-10-04T12:35:10.276Z,3.60
2023-10-04T12:36:10.233Z,3.70
2023-10-04T12:37:10.289Z,3.50
2023-10-04T12:38:10.241Z,3.60
2023-10-04T12:39:10.256Z,3.40
2023-10-04T12:40:10.270Z,3.00
2023-10-04T12:41:10.214Z,3.50
2023-10-04T12:42:10.255Z,3.40
2023-10-04T12:43:10.170Z,4.00
2023-10-04T12:44:10.233Z,3.60
2023-10-04T12:45:10.130Z,3.40
2023-10-04T12:46:10.249Z,3.00
2023-10-04T12:47:10.251Z,3.40
2023-10-04T12:48:10.170Z,3.30
2023-10-04T12:49:10.110Z,3.30
2023-10-04T12:50:10.637Z,3.80
2023-10-04T12:51:10.203Z,3.80
2023-10-04T12:52:10.210Z,4.20
2023-10-04T12:53:10.086Z,3.80
2023-10-04T12:54:13.073Z,3.70
2023-10-04T12:56:38.619Z,3.20
2023-10-04T12:57:39.637Z,3.20
2023-10-04T12:58:39.533Z,3.40
2023-10-04T12:59:39.538Z,3.00
2023-10-04T13:00:39.522Z,3.60
2023-10-04T13:01:39.578Z,3.30
2023-10-04T13:02:39.503Z,3.30
2023-10-04T13:03:39.559Z,3.50
2023-10-04T13:05:46.594Z,3.40
2023-10-04T13:06:44.702Z,3.90
2023-10-04T13:07:44.625Z,3.40
2023-10-04T13:08:46.028Z,3.30
2023-10-04T13:09:57.934Z,4.10
2023-10-04T13:10:44.778Z,3.10
2023-10-04T13:11:44.623Z,3.30
2023-10-04T13:12:44.628Z,3.60
2023-10-04T13:13:44.571Z,3.30
2023-10-04T13:14:44.562Z,3.40
2023-10-04T13:15:44.669Z,3.50
2023-10-04T13:16:44.693Z,3.70
2023-10-04T13:17:44.644Z,2.80
2023-10-04T13:18:44.503Z,3.00
2023-10-04T13:19:44.475Z,3.20
2023-10-04T13:20:44.472Z,3.10